createdAt,value
2023-01-07T00:00:27.596Z,124.44
2023-01-07T00:01:27.519Z,127.49
2023-01-07T00:02:27.567Z,129.38
2023-01-07T00:03:27.517Z,128.58
2023-01-07T00:04:27.499Z,131.84
2023-01-07T00:05:27.468Z,132.79
2023-01-07T00:06:27.483Z,139.94
2023-01-07T00:07:27.455Z,144.69
2023-01-07T00:08:27.446Z,144.69
2023-01-07T00:09:27.434Z,151.55
2023-01-07T00:10:27.416Z,152.24
2023-01-07T00:11:27.418Z,153.93
2023-01-07T00:12:27.381Z,155.66
2023-01-07T00:13:27.408Z,152.66
2023-01-07T00:14:27.385Z,151.83
2023-01-07T00:15:27.348Z,139.12
2023-01-07T00:16:27.453Z,123.24
2023-01-07T00:17:27.319Z,115.29
2023-01-07T00:18:27.323Z,111.06
2023-01-07T00:19:27.298Z,118.07
2023-01-07T00:20:27.283Z,126.23
2023-01-07T00:21:27.269Z,129.38
2023-01-07T00:22:27.269Z,129.28
2023-01-07T00:23:27.270Z,128.08
2023-01-07T00:24:27.243Z,129.18
2023-01-07T00:25:27.223Z,135.27
2023-01-07T00:26:27.207Z,137.28
2023-01-07T00:27:27.188Z,130.49
2023-01-07T00:28:27.187Z,123.79
2023-01-07T00:29:27.179Z,124.91
2023-01-07T00:30:27.155Z,127.39
2023-01-07T00:31:27.194Z,123.70
2023-01-07T00:32:27.130Z,120.30
2023-01-07T00:33:27.127Z,123.79
2023-01-07T00:34:27.105Z,127.30
2023-01-07T00:35:27.091Z,126.62
2023-01-07T00:36:27.087Z,128.28
2023-01-07T00:37:27.064Z,129.18
2023-01-07T00:38:27.072Z,132.89
2023-01-07T00:39:27.069Z,130.29
2023-01-07T00:40:27.049Z,135.71
2023-01-07T00:41:27.100Z,139.94
2023-01-07T00:42:27.042Z,137.74
2023-01-07T00:43:26.992Z,137.51
2023-01-07T00:44:26.998Z,137.97
2023-01-07T00:45:26.974Z,137.51
2023-01-07T00:46:26.997Z,136.16
2023-01-07T00:47:26.950Z,136.27
2023-01-07T00:48:26.931Z,137.06
2023-01-07T00:49:26.949Z,143.57
2023-01-07T00:50:26.902Z,146.99
2023-01-07T00:51:26.903Z,148.70
2023-01-07T00:52:26.882Z,151.83
2023-01-07T00:53:26.866Z,153.23
2023-01-07T00:54:26.863Z,149.37
2023-01-07T00:55:26.867Z,145.96
2023-01-07T00:56:26.833Z,147.38
2023-01-07T00:57:26.818Z,145.45
2023-01-07T00:58:26.808Z,145.83
2023-01-07T00:59:26.844Z,147.38
2023-01-07T01:00:26.779Z,146.73
2023-01-07T01:01:26.924Z,146.22
2023-01-07T01:02:26.772Z,149.91
2023-01-07T01:03:26.750Z,149.77
2023-01-07T01:04:26.744Z,153.51
2023-01-07T01:05:26.741Z,153.08
2023-01-07T01:06:26.713Z,147.38
2023-01-07T01:07:26.702Z,149.10
2023-01-07T01:08:26.691Z,147.78
2023-01-07T01:09:26.678Z,144.44
2023-01-07T01:10:26.667Z,144.06
2023-01-07T01:11:26.686Z,146.09
2023-01-07T01:12:26.664Z,149.10
2023-01-07T01:13:26.640Z,150.32
2023-01-07T01:14:26.610Z,148.70
2023-01-07T01:15:26.628Z,148.97
2023-01-07T01:16:26.614Z,149.64
2023-01-07T01:17:26.583Z,147.65
2023-01-07T01:18:26.563Z,146.35
2023-01-07T01:19:26.550Z,142.46
2023-01-07T01:20:26.553Z,145.20
2023-01-07T01:21:26.523Z,146.22
2023-01-07T01:22:26.519Z,147.38
2023-01-07T01:23:26.510Z,143.69
2023-01-07T01:24:26.498Z,141.01
2023-01-07T01:25:26.485Z,140.06
2023-01-07T01:26:26.471Z,139.35
2023-01-07T01:27:26.451Z,136.49
2023-01-07T01:28:26.459Z,132.15
2023-01-07T01:29:26.440Z,133.96
2023-01-07T01:30:26.467Z,135.16
2023-01-07T01:31:26.517Z,131.63
2023-01-07T01:32:26.395Z,126.71
2023-01-07T01:33:26.379Z,127.49
2023-01-07T01:34:26.361Z,124.91
2023-01-07T01:35:26.360Z,122.69
2023-01-07T01:36:26.349Z,124.16
2023-01-07T01:37:26.329Z,121.44
2023-01-07T01:38:26.326Z,122.51
2023-01-07T01:39:26.310Z,129.98
2023-01-07T01:40:26.288Z,133.75
2023-01-07T01:41:26.300Z,145.07
2023-01-07T01:42:26.266Z,168.10
2023-01-07T01:43:26.255Z,176.49
2023-01-07T01:44:26.245Z,186.17
2023-01-07T01:45:26.232Z,187.68
2023-01-07T01:46:26.314Z,190.86
2023-01-07T01:47:26.246Z,188.77
2023-01-07T01:48:26.190Z,190.75
2023-01-07T01:49:26.189Z,185.96
2023-01-07T01:50:26.205Z,181.30
2023-01-07T01:51:26.181Z,171.21
2023-01-07T01:52:26.145Z,164.60
2023-01-07T01:53:26.166Z,159.70
2023-01-07T01:54:26.129Z,159.09
2023-01-07T01:55:26.123Z,156.99
2023-01-07T01:56:26.117Z,157.28
2023-01-07T01:57:26.111Z,153.51
2023-01-07T01:58:26.067Z,155.23
2023-01-07T01:59:26.065Z,153.65
2023-01-07T02:00:26.042Z,156.84
2023-01-07T02:01:26.150Z,159.40
2023-01-07T02:02:26.090Z,158.33
2023-01-07T02:03:26.030Z,154.94
2023-01-07T02:04:25.994Z,156.99
2023-01-07T02:05:26.025Z,160.94
2023-01-07T02:06:25.980Z,165.92
2023-01-07T02:07:25.967Z,163.31
2023-01-07T02:08:25.981Z,155.52
2023-01-07T02:09:25.946Z,155.23
2023-01-07T02:10:25.917Z,151.27
2023-01-07T02:11:25.919Z,148.30
2023-01-07T02:12:25.904Z,147.78
2023-01-07T02:13:25.900Z,153.37
2023-01-07T02:14:25.876Z,158.18
2023-01-07T02:15:25.864Z,165.75
2023-01-07T02:16:25.878Z,168.78
2023-01-07T02:17:25.853Z,171.92
2023-01-07T02:18:25.859Z,165.75
2023-01-07T02:19:25.816Z,168.78
2023-01-07T02:20:25.820Z,171.74
2023-01-07T02:21:25.897Z,178.76
2023-01-07T02:22:25.808Z,178.96
2023-01-07T02:23:25.778Z,190.64
2023-01-07T02:24:25.760Z,192.77
2023-01-07T02:25:25.742Z,189.09
2023-01-07T02:26:25.729Z,189.09
2023-01-07T02:27:25.713Z,184.93
2023-01-07T02:28:25.710Z,184.93
2023-01-07T02:29:25.713Z,190.97
2023-01-07T02:30:25.685Z,198.87
2023-01-07T02:31:25.703Z,200.70
2023-01-07T02:32:25.657Z,202.07
2023-01-07T02:33:25.655Z,204.34
2023-01-07T02:34:25.624Z,210.26
2023-01-07T02:35:25.634Z,209.31
2023-01-07T02:36:25.610Z,204.09
2023-01-07T02:37:25.596Z,206.54
2023-01-07T02:38:25.590Z,210.39
2023-01-07T02:39:25.590Z,209.99
2023-01-07T02:40:25.570Z,209.72
2023-01-07T02:41:25.537Z,213.27
2023-01-07T02:42:25.520Z,223.02
2023-01-07T02:43:25.518Z,223.02
2023-01-07T02:44:25.504Z,218.99
2023-01-07T02:45:25.490Z,211.48
2023-01-07T02:46:25.491Z,209.31
2023-01-07T02:47:25.476Z,203.96
2023-01-07T02:48:25.454Z,194.15
2023-01-07T02:49:25.444Z,169.47
2023-01-07T02:50:25.433Z,155.66
2023-01-07T02:51:25.415Z,152.10
2023-01-07T02:52:25.421Z,148.30
2023-01-07T02:53:25.419Z,144.57
2023-01-07T02:54:25.375Z,139.59
2023-01-07T02:55:25.365Z,141.61
2023-01-07T02:56:25.352Z,146.09
2023-01-07T02:57:25.341Z,146.86
2023-01-07T02:58:25.342Z,147.91
2023-01-07T02:59:25.319Z,149.64
2023-01-07T03:00:25.301Z,153.79
2023-01-07T03:01:25.469Z,157.43
2023-01-07T03:02:25.281Z,152.94
2023-01-07T03:03:25.272Z,147.25
2023-01-07T03:04:25.342Z,148.70
2023-01-07T03:05:25.255Z,156.10
2023-01-07T03:06:25.233Z,173.00
2023-01-07T03:07:25.223Z,179.54
2023-01-07T03:08:25.202Z,183.50
2023-01-07T03:09:25.205Z,184.72
2023-01-07T03:10:25.179Z,180.90
2023-01-07T03:11:25.177Z,181.89
2023-01-07T03:12:25.156Z,182.49
2023-01-07T03:13:25.151Z,180.12
2023-01-07T03:14:25.137Z,171.57
2023-01-07T03:15:25.134Z,163.95
2023-01-07T03:16:25.160Z,168.27
2023-01-07T03:17:25.097Z,175.00
2023-01-07T03:18:25.090Z,173.90
2023-01-07T03:19:25.084Z,184.92
2023-01-07T03:20:25.073Z,199.36
2023-01-07T03:21:25.065Z,210.80
2023-01-07T03:22:25.053Z,215.95
2023-01-07T03:23:25.027Z,233.21
2023-01-07T03:24:25.044Z,242.55
2023-01-07T03:25:25.009Z,246.39
2023-01-07T03:26:24.993Z,246.95
2023-01-07T03:27:24.972Z,233.54
2023-01-07T03:28:24.963Z,217.68
2023-01-07T03:29:24.960Z,218.70
2023-01-07T03:30:24.943Z,213.41
2023-01-07T03:31:24.968Z,213.14
2023-01-07T03:32:24.908Z,225.02
2023-01-07T03:33:24.905Z,231.55
2023-01-07T03:34:24.924Z,235.73
2023-01-07T03:35:24.875Z,239.18
2023-01-07T03:36:24.869Z,236.07
2023-01-07T03:37:24.879Z,228.32
2023-01-07T03:38:24.839Z,214.39
2023-01-07T03:39:24.854Z,208.38
2023-01-07T03:40:24.816Z,205.37
2023-01-07T03:41:24.801Z,211.62
2023-01-07T03:42:24.781Z,210.80
2023-01-07T03:43:24.786Z,210.66
2023-01-07T03:44:24.766Z,209.05
2023-01-07T03:45:24.783Z,215.67
2023-01-07T03:46:24.732Z,219.43
2023-01-07T03:47:24.723Z,220.91
2023-01-07T03:48:24.709Z,215.81
2023-01-07T03:49:24.718Z,202.82
2023-01-07T03:50:24.734Z,198.87
2023-01-07T03:51:24.695Z,196.13
2023-01-07T03:52:24.661Z,189.75
2023-01-07T03:53:24.654Z,189.53
2023-01-07T03:54:24.663Z,186.82
2023-01-07T03:55:24.624Z,180.31
2023-01-07T03:56:24.608Z,171.04
2023-01-07T03:57:24.606Z,173.36
2023-01-07T03:58:24.591Z,171.92
2023-01-07T03:59:24.587Z,177.81
2023-01-07T04:00:24.573Z,178.76
2023-01-07T04:01:24.678Z,185.13
2023-01-07T04:02:24.537Z,183.70
2023-01-07T04:03:24.526Z,175.00
2023-01-07T04:04:24.539Z,172.64
2023-01-07T04:05:24.511Z,172.82
2023-01-07T04:06:24.498Z,191.42
2023-01-07T04:07:24.501Z,194.38
2023-01-07T04:08:24.464Z,196.24
2023-01-07T04:09:24.462Z,200.21
2023-01-07T04:10:24.457Z,202.57
2023-01-07T04:11:24.440Z,196.96
2023-01-07T04:12:24.414Z,205.37
2023-01-07T04:13:24.412Z,207.19
2023-01-07T04:14:24.388Z,202.19
2023-01-07T04:15:24.386Z,193.23
2023-01-07T04:16:24.450Z,191.20
2023-01-07T04:17:24.429Z,190.97
2023-01-07T04:18:24.347Z,191.98
2023-01-07T04:19:24.332Z,190.75
2023-01-07T04:20:24.313Z,196.13
2023-01-07T04:21:24.312Z,195.42
2023-01-07T04:22:24.290Z,195.66
2023-01-07T04:23:24.273Z,193.92
2023-01-07T04:24:24.287Z,197.07
2023-01-07T04:25:24.267Z,212.17
2023-01-07T04:26:24.268Z,226.58
2023-01-07T04:27:24.244Z,236.58
2023-01-07T04:28:24.228Z,234.55
2023-01-07T04:29:24.207Z,241.83
2023-01-07T04:30:24.187Z,243.45
2023-01-07T04:31:24.199Z,245.65
2023-01-07T04:32:24.172Z,237.79
2023-01-07T04:33:24.160Z,251.32
2023-01-07T04:34:24.139Z,268.67
2023-01-07T04:35:24.134Z,256.24
2023-01-07T04:36:24.129Z,252.87
2023-01-07T04:37:24.121Z,244.91
2023-01-07T04:38:24.085Z,239.00
2023-01-07T04:39:24.080Z,230.90
2023-01-07T04:40:24.065Z,227.84
2023-01-07T04:41:24.054Z,223.48
2023-01-07T04:42:24.047Z,215.38
2023-01-07T04:43:24.031Z,204.21
2023-01-07T04:44:24.021Z,206.80
2023-01-07T04:45:24.017Z,211.21
2023-01-07T04:46:24.043Z,207.32
2023-01-07T04:47:23.984Z,210.39
2023-01-07T04:48:23.963Z,218.84
2023-01-07T04:49:23.976Z,223.48
2023-01-07T04:50:23.938Z,232.54
2023-01-07T04:51:23.930Z,239.18
2023-01-07T04:52:23.941Z,248.45
2023-01-07T04:53:23.904Z,254.84
2023-01-07T04:54:23.901Z,255.64
2023-01-07T04:55:23.883Z,242.37
2023-01-07T04:56:23.869Z,243.64
2023-01-07T04:57:23.854Z,233.87
2023-01-07T04:58:23.857Z,233.87
2023-01-07T04:59:23.832Z,223.33
2023-01-07T05:00:23.821Z,225.80
2023-01-07T05:01:23.984Z,222.27
2023-01-07T05:02:23.857Z,215.52
2023-01-07T05:03:23.806Z,220.32
2023-01-07T05:04:23.863Z,235.73
2023-01-07T05:05:23.774Z,241.83
2023-01-07T05:06:23.742Z,233.37
2023-01-07T05:07:23.725Z,221.06
2023-01-07T05:08:23.754Z,215.95
2023-01-07T05:09:23.722Z,213.97
2023-01-07T05:10:23.695Z,205.37
2023-01-07T05:11:23.687Z,201.82
2023-01-07T05:12:23.679Z,199.85
2023-01-07T05:13:23.664Z,202.95
2023-01-07T05:14:23.648Z,220.32
2023-01-07T05:15:23.650Z,244.73
2023-01-07T05:16:23.673Z,231.06
2023-01-07T05:17:23.600Z,218.40
2023-01-07T05:18:23.592Z,197.07
2023-01-07T05:19:23.582Z,178.38
2023-01-07T05:20:23.568Z,167.25
2023-01-07T05:21:23.551Z,157.28
2023-01-07T05:22:23.557Z,158.03
2023-01-07T05:23:23.529Z,159.85
2023-01-07T05:24:23.533Z,162.04
2023-01-07T05:25:23.521Z,163.47
2023-01-07T05:26:23.507Z,166.42
2023-01-07T05:27:23.503Z,163.15
2023-01-07T05:28:23.474Z,156.99
2023-01-07T05:29:23.486Z,144.31
2023-01-07T05:30:23.445Z,143.81
2023-01-07T05:31:23.428Z,132.26
2023-01-07T05:32:23.422Z,119.86
2023-01-07T05:33:23.408Z,109.59
2023-01-07T05:34:23.400Z,104.49
2023-01-07T05:35:23.391Z,102.43
2023-01-07T05:36:23.379Z,102.75
2023-01-07T05:37:23.361Z,99.25
2023-01-07T05:38:23.350Z,97.39
2023-01-07T05:39:23.354Z,95.51
2023-01-07T05:40:23.339Z,94.14
2023-01-07T05:41:23.317Z,97.28
2023-01-07T05:42:23.300Z,97.91
2023-01-07T05:43:23.280Z,99.49
2023-01-07T05:44:23.279Z,100.76
2023-01-07T05:45:23.263Z,97.56
2023-01-07T05:46:23.300Z,100.70
2023-01-07T05:47:23.258Z,103.26
2023-01-07T05:48:23.219Z,104.62
2023-01-07T05:49:23.212Z,108.09
2023-01-07T05:50:23.213Z,112.10
2023-01-07T05:51:23.200Z,111.58
2023-01-07T05:52:23.176Z,111.50
2023-01-07T05:53:23.171Z,109.23
2023-01-07T05:54:23.151Z,107.05
2023-01-07T05:55:23.147Z,103.26
2023-01-07T05:56:23.124Z,98.66
2023-01-07T05:57:23.102Z,95.73
2023-01-07T05:58:23.101Z,92.02
2023-01-07T05:59:23.103Z,86.56
2023-01-07T06:00:23.072Z,81.15
2023-01-07T06:01:23.088Z,77.23
2023-01-07T06:02:23.054Z,74.79
2023-01-07T06:03:23.077Z,72.77
2023-01-07T06:04:23.041Z,70.84
2023-01-07T06:05:23.012Z,69.42
2023-01-07T06:06:30.725Z,68.79
2023-01-07T06:07:22.972Z,68.11
2023-01-07T06:08:23.000Z,67.84
2023-01-07T06:09:22.987Z,67.40
2023-01-07T06:10:22.942Z,67.67
2023-01-07T06:11:22.934Z,67.23
2023-01-07T06:12:22.916Z,67.12
2023-01-07T06:13:22.900Z,66.59
2023-01-07T06:14:22.895Z,66.22
2023-01-07T06:15:22.880Z,65.18
2023-01-07T06:16:22.882Z,65.13
2023-01-07T06:17:22.848Z,64.12
2023-01-07T06:18:22.902Z,63.53
2023-01-07T06:19:22.865Z,63.97
2023-01-07T06:20:22.843Z,63.83
2023-01-07T06:21:22.821Z,63.68
2023-01-07T06:22:22.814Z,63.34
2023-01-07T06:23:22.821Z,63.00
2023-01-07T06:24:22.792Z,62.72
2023-01-07T06:25:22.793Z,63.05
2023-01-07T06:26:22.816Z,63.68
2023-01-07T06:27:22.719Z,63.63
2023-01-07T06:28:22.732Z,63.78
2023-01-07T06:29:22.701Z,63.24
2023-01-07T06:30:22.707Z,63.34
2023-01-07T06:31:22.813Z,63.63
2023-01-07T06:32:22.672Z,63.73
2023-01-07T06:33:22.708Z,63.53
2023-01-07T06:34:22.648Z,63.97
2023-01-07T06:35:22.647Z,64.72
2023-01-07T06:36:22.669Z,64.67
2023-01-07T06:37:22.612Z,66.75
2023-01-07T06:38:22.616Z,67.07
2023-01-07T06:39:22.589Z,66.96
2023-01-07T06:40:22.566Z,66.64
2023-01-07T06:41:22.545Z,66.86
2023-01-07T06:42:22.551Z,68.90
2023-01-07T06:43:22.520Z,69.13
2023-01-07T06:44:22.527Z,69.36
2023-01-07T06:45:22.492Z,69.31
2023-01-07T06:46:22.595Z,70.90
2023-01-07T06:47:22.494Z,71.21
2023-01-07T06:48:22.463Z,70.42
2023-01-07T06:49:22.474Z,70.36
2023-01-07T06:50:22.446Z,70.90
2023-01-07T06:51:22.414Z,70.96
2023-01-07T06:52:22.449Z,70.42
2023-01-07T06:53:22.407Z,71.08
2023-01-07T06:54:22.390Z,71.82
2023-01-07T06:55:22.375Z,71.15
2023-01-07T06:56:22.357Z,70.90
2023-01-07T06:57:22.344Z,70.13
2023-01-07T06:58:22.347Z,70.13
2023-01-07T06:59:22.338Z,70.01
2023-01-07T07:00:22.345Z,69.83
2023-01-07T07:01:22.433Z,70.72
2023-01-07T07:02:22.494Z,71.76
2023-01-07T07:03:22.271Z,71.82
2023-01-07T07:04:22.303Z,71.03
2023-01-07T07:05:22.256Z,70.36
2023-01-07T07:06:22.239Z,70.13
2023-01-07T07:07:22.249Z,70.78
2023-01-07T07:08:22.214Z,71.15
2023-01-07T07:09:22.189Z,71.64
2023-01-07T07:10:22.182Z,72.77
2023-01-07T07:11:22.186Z,73.02
2023-01-07T07:12:22.165Z,73.02
2023-01-07T07:13:22.149Z,74.46
2023-01-07T07:14:22.133Z,76.80
2023-01-07T07:15:22.121Z,78.76
2023-01-07T07:16:22.153Z,81.15
2023-01-07T07:17:22.136Z,80.83
2023-01-07T07:18:22.109Z,82.76
2023-01-07T07:19:22.087Z,86.56
2023-01-07T07:20:22.064Z,85.57
2023-01-07T07:21:22.035Z,85.22
2023-01-07T07:22:22.070Z,86.65
2023-01-07T07:23:22.013Z,86.74
2023-01-07T07:24:22.007Z,86.38
2023-01-07T07:25:21.980Z,88.21
2023-01-07T07:26:21.972Z,89.64
2023-01-07T07:27:21.962Z,91.01
2023-01-07T07:28:21.960Z,90.91
2023-01-07T07:29:22.009Z,90.51
2023-01-07T07:30:21.923Z,92.12
2023-01-07T07:31:22.024Z,91.81
2023-01-07T07:32:21.953Z,92.22
2023-01-07T07:33:21.890Z,92.02
2023-01-07T07:34:21.904Z,91.31
2023-01-07T07:35:21.855Z,89.44
2023-01-07T07:36:21.849Z,88.02
2023-01-07T07:37:21.828Z,87.10
2023-01-07T07:38:21.821Z,87.65
2023-01-07T07:39:21.808Z,87.65
2023-01-07T07:40:21.807Z,86.02
2023-01-07T07:41:23.241Z,84.79
2023-01-07T07:42:21.779Z,83.85
2023-01-07T07:43:21.759Z,82.68
2023-01-07T07:44:21.745Z,81.39
2023-01-07T07:45:21.742Z,82.27
2023-01-07T07:46:21.868Z,82.03
2023-01-07T07:47:21.735Z,81.15
2023-01-07T07:48:21.693Z,81.31
2023-01-07T07:49:21.686Z,82.43
2023-01-07T07:50:21.697Z,83.10
2023-01-07T07:51:21.652Z,84.27
2023-01-07T07:52:21.677Z,84.36
2023-01-07T07:53:21.627Z,84.02
2023-01-07T07:54:23.816Z,83.85
2023-01-07T07:55:26.142Z,83.51
2023-01-07T07:56:21.612Z,83.68
2023-01-07T07:57:21.578Z,82.76
2023-01-07T07:58:21.590Z,81.71
2023-01-07T07:59:21.568Z,81.07
2023-01-07T08:00:21.559Z,80.99
2023-01-07T08:01:21.810Z,79.44
2023-01-07T08:02:21.573Z,78.76
2023-01-07T08:03:21.606Z,78.03
2023-01-07T08:04:21.499Z,78.39
2023-01-07T08:05:21.511Z,78.69
2023-01-07T08:06:21.483Z,79.21
2023-01-07T08:07:32.434Z,79.21
2023-01-07T08:08:21.479Z,79.52
2023-01-07T08:09:21.433Z,78.54
2023-01-07T08:10:21.435Z,77.81
2023-01-07T08:11:21.396Z,77.66
2023-01-07T08:12:21.384Z,76.52
2023-01-07T08:13:21.369Z,75.61
2023-01-07T08:14:21.363Z,75.34
2023-01-07T08:15:21.395Z,74.93
2023-01-07T08:16:21.406Z,73.80
2023-01-07T08:17:21.323Z,73.15
2023-01-07T08:18:21.315Z,73.08
2023-01-07T08:19:21.303Z,73.08
2023-01-07T08:20:21.289Z,72.96
2023-01-07T08:21:21.283Z,73.21
2023-01-07T08:22:21.255Z,73.21
2023-01-07T08:23:21.259Z,73.08
2023-01-07T08:24:21.229Z,73.21
2023-01-07T08:25:21.214Z,72.32
2023-01-07T08:26:21.276Z,72.51
2023-01-07T08:27:21.204Z,72.64
2023-01-07T08:28:21.179Z,72.39
2023-01-07T08:29:21.163Z,73.08
2023-01-07T08:30:21.151Z,75.20
2023-01-07T08:31:21.229Z,76.38
2023-01-07T08:32:21.159Z,76.03
2023-01-07T08:33:21.121Z,75.13
2023-01-07T08:34:21.128Z,74.93
2023-01-07T08:35:21.132Z,74.33
2023-01-07T08:36:23.499Z,74.13
2023-01-07T08:37:21.123Z,75.00
2023-01-07T08:38:21.076Z,74.46
2023-01-07T08:39:21.034Z,76.87
2023-01-07T08:40:21.036Z,78.99
2023-01-07T08:41:21.021Z,81.63
2023-01-07T08:42:21.012Z,84.88
2023-01-07T08:43:20.984Z,83.68
2023-01-07T08:44:21.035Z,83.01
2023-01-07T08:45:20.962Z,83.60
2023-01-07T08:46:21.039Z,82.93
2023-01-07T08:47:20.947Z,82.35
2023-01-07T08:48:20.935Z,81.79
2023-01-07T08:49:20.911Z,81.95
2023-01-07T08:50:20.905Z,81.15
2023-01-07T08:51:20.905Z,81.23
2023-01-07T08:52:20.879Z,82.93
2023-01-07T08:53:20.918Z,84.88
2023-01-07T08:54:20.885Z,85.31
2023-01-07T08:55:20.844Z,82.76
2023-01-07T08:56:20.842Z,82.19
2023-01-07T08:57:20.839Z,83.51
2023-01-07T08:58:20.834Z,83.60
2023-01-07T08:59:20.789Z,83.51
2023-01-07T09:00:20.767Z,85.14
2023-01-07T09:01:20.906Z,86.47
2023-01-07T09:02:20.971Z,89.15
2023-01-07T09:03:28.358Z,91.21
2023-01-07T09:04:20.715Z,95.07
2023-01-07T09:05:20.747Z,95.84
2023-01-07T09:06:20.698Z,95.62
2023-01-07T09:07:20.687Z,95.22
2023-01-07T09:08:20.668Z,98.78
2023-01-07T09:09:20.672Z,99.97
2023-01-07T09:10:20.644Z,105.09
2023-01-07T09:11:20.636Z,109.09
2023-01-07T09:12:20.663Z,114.18
2023-01-07T09:13:20.611Z,115.53
2023-01-07T09:14:20.616Z,116.34
2023-01-07T09:15:20.584Z,119.18
2023-01-07T09:16:20.620Z,120.47
2023-01-07T09:17:22.385Z,123.42
2023-01-07T09:18:20.574Z,129.98
2023-01-07T09:19:20.565Z,136.38
2023-01-07T09:20:20.516Z,141.97
2023-01-07T09:21:20.507Z,148.30
2023-01-07T09:22:20.500Z,151.14
2023-01-07T09:23:20.487Z,159.40
2023-01-07T09:24:20.484Z,163.79
2023-01-07T09:25:20.469Z,170.86
2023-01-07T09:26:20.435Z,183.70
2023-01-07T09:27:20.430Z,185.24
2023-01-07T09:28:20.420Z,190.41
2023-01-07T09:29:20.474Z,204.09
2023-01-07T09:30:20.402Z,211.21
2023-01-07T09:31:20.435Z,212.44
2023-01-07T09:32:20.398Z,207.98
2023-01-07T09:33:20.366Z,206.67
2023-01-07T09:34:20.364Z,202.19
2023-01-07T09:35:20.354Z,201.32
2023-01-07T09:36:20.321Z,204.60
2023-01-07T09:37:20.355Z,205.11
2023-01-07T09:38:20.282Z,206.15
2023-01-07T09:39:20.304Z,205.76
2023-01-07T09:40:20.258Z,200.09
2023-01-07T09:41:20.310Z,197.07
2023-01-07T09:42:20.252Z,186.29
2023-01-07T09:43:20.237Z,188.55
2023-01-07T09:44:20.212Z,188.88
2023-01-07T09:45:20.227Z,188.55
2023-01-07T09:46:20.184Z,183.30
2023-01-07T09:47:20.175Z,184.93
2023-01-07T09:48:20.179Z,186.29
2023-01-07T09:49:20.157Z,184.93
2023-01-07T09:50:20.176Z,178.19
2023-01-07T09:51:20.122Z,176.86
2023-01-07T09:52:20.112Z,180.12
2023-01-07T09:53:20.101Z,175.74
2023-01-07T09:54:20.116Z,180.51
2023-01-07T09:55:20.090Z,195.31
2023-01-07T09:56:20.069Z,210.53
2023-01-07T09:57:20.055Z,203.32
2023-01-07T09:58:20.053Z,202.44
2023-01-07T09:59:20.024Z,207.85
2023-01-07T10:00:20.029Z,212.17
2023-01-07T10:01:20.059Z,215.81
2023-01-07T10:02:20.049Z,223.94
2023-01-07T10:03:19.967Z,227.37
2023-01-07T10:04:20.087Z,238.31
2023-01-07T10:05:19.955Z,229.76
2023-01-07T10:06:29.318Z,213.97
2023-01-07T10:07:19.948Z,216.67
2023-01-07T10:08:29.281Z,218.70
2023-01-07T10:09:19.914Z,207.98
2023-01-07T10:10:19.917Z,206.54
2023-01-07T10:11:19.887Z,220.76
2023-01-07T10:12:19.862Z,228.48
2023-01-07T10:13:19.841Z,227.53
2023-01-07T10:14:19.836Z,229.28
2023-01-07T10:15:19.835Z,234.55
2023-01-07T10:16:19.883Z,232.05
2023-01-07T10:17:19.806Z,240.76
2023-01-07T10:18:19.770Z,256.85
2023-01-07T10:19:19.773Z,276.62
2023-01-07T10:20:19.762Z,287.07
2023-01-07T10:21:19.737Z,294.04
2023-01-07T10:22:19.772Z,295.37
2023-01-07T10:23:19.734Z,302.76
2023-01-07T10:24:21.788Z,294.31
2023-01-07T10:25:19.711Z,298.34
2023-01-07T10:26:19.678Z,319.63
2023-01-07T10:27:19.659Z,329.95
2023-01-07T10:28:19.670Z,331.63
2023-01-07T10:29:19.649Z,334.00
2023-01-07T10:30:19.667Z,326.01
2023-01-07T10:31:19.677Z,337.45
2023-01-07T10:32:19.607Z,333.32
2023-01-07T10:33:19.631Z,320.26
2023-01-07T10:34:19.590Z,315.01
2023-01-07T10:35:19.559Z,309.93
2023-01-07T10:36:19.570Z,285.32
2023-01-07T10:37:19.556Z,288.85
2023-01-07T10:38:19.550Z,298.88
2023-01-07T10:39:19.517Z,318.08
2023-01-07T10:40:19.599Z,336.41
2023-01-07T10:41:19.497Z,337.80
2023-01-07T10:42:19.467Z,344.20
2023-01-07T10:43:19.460Z,357.37
2023-01-07T10:44:19.456Z,377.60
2023-01-07T10:45:19.471Z,402.14
2023-01-07T10:46:19.483Z,409.83
2023-01-07T10:47:19.438Z,403.85
2023-01-07T10:48:19.390Z,415.21
2023-01-07T10:49:19.458Z,420.73
2023-01-07T10:50:19.429Z,413.92
2023-01-07T10:51:19.385Z,418.08
2023-01-07T10:52:19.354Z,405.33
2023-01-07T10:53:19.476Z,402.38
2023-01-07T10:54:19.321Z,412.89
2023-01-07T10:55:19.311Z,436.20
2023-01-07T10:56:19.317Z,440.54
2023-01-07T10:57:19.302Z,439.67
2023-01-07T10:58:19.271Z,449.18
2023-01-07T10:59:19.289Z,439.96
2023-01-07T11:00:19.293Z,441.42
2023-01-07T11:01:19.330Z,461.66
2023-01-07T11:02:19.462Z,447.36
2023-01-07T11:03:19.238Z,415.21
2023-01-07T11:04:19.234Z,397.33
2023-01-07T11:05:19.212Z,369.91
2023-01-07T11:06:19.169Z,381.14
2023-01-07T11:07:19.166Z,375.00
2023-01-07T11:08:19.148Z,374.57
2023-01-07T11:09:19.137Z,398.04
2023-01-07T11:10:19.282Z,407.07
2023-01-07T11:11:19.105Z,419.14
2023-01-07T11:12:19.121Z,420.73
2023-01-07T11:13:19.103Z,422.61
2023-01-07T11:14:19.066Z,421.80
2023-01-07T11:15:19.068Z,410.08
2023-01-07T11:16:19.181Z,419.14
2023-01-07T11:17:19.043Z,411.61
2023-01-07T11:18:19.015Z,401.41
2023-01-07T11:19:20.031Z,420.73
2023-01-07T11:20:19.059Z,424.22
2023-01-07T11:21:42.719Z,442.60
2023-01-07T11:22:19.027Z,457.22
2023-01-07T11:23:18.957Z,460.70
2023-01-07T11:24:19.000Z,451.31
2023-01-07T11:25:18.943Z,446.16
2023-01-07T11:26:18.938Z,453.16
2023-01-07T11:27:18.909Z,464.57
2023-01-07T11:28:18.898Z,463.60
2023-01-07T11:29:18.878Z,467.51
2023-01-07T11:30:18.864Z,458.16
2023-01-07T11:31:18.875Z,446.16
2023-01-07T11:32:18.833Z,439.08
2023-01-07T11:33:18.835Z,452.24
2023-01-07T11:34:18.815Z,466.53
2023-01-07T11:35:19.832Z,464.89
2023-01-07T11:36:18.791Z,449.18
2023-01-07T11:37:18.781Z,453.16
2023-01-07T11:38:18.771Z,460.70
2023-01-07T11:39:18.797Z,472.16
2023-01-07T11:40:18.738Z,468.83
2023-01-07T11:41:18.842Z,476.57
2023-01-07T11:42:18.746Z,459.75
2023-01-07T11:43:18.757Z,451.31
2023-01-07T11:44:18.692Z,451.01
2023-01-07T11:45:18.686Z,441.12
2023-01-07T11:46:21.822Z,440.54
2023-01-07T11:47:18.696Z,452.85
2023-01-07T11:48:18.653Z,471.49
2023-01-07T11:49:18.713Z,476.23
2023-01-07T11:50:18.620Z,490.65
2023-01-07T11:51:18.612Z,498.38
2023-01-07T11:52:18.596Z,499.88
2023-01-07T11:53:18.605Z,529.35
2023-01-07T11:54:18.626Z,534.89
2023-01-07T11:55:18.588Z,551.77
2023-01-07T11:56:18.551Z,534.46
2023-01-07T11:57:18.543Z,537.92
2023-01-07T11:58:29.688Z,539.67
2023-01-07T11:59:18.551Z,519.82
2023-01-07T12:00:18.530Z,506.74
2023-01-07T12:01:18.554Z,497.63
2023-01-07T12:02:18.511Z,476.23
2023-01-07T12:03:18.498Z,479.66
2023-01-07T12:04:18.467Z,506.35
2023-01-07T12:05:18.462Z,506.35
2023-01-07T12:06:18.433Z,514.19
2023-01-07T12:07:18.440Z,492.83
2023-01-07T12:08:26.398Z,457.22
2023-01-07T12:09:18.443Z,453.78
2023-01-07T12:10:18.410Z,453.78
2023-01-07T12:11:18.369Z,495.03
2023-01-07T12:12:18.365Z,512.60
2023-01-07T12:13:18.343Z,480.01
2023-01-07T12:14:18.348Z,486.69
2023-01-07T12:15:18.323Z,489.56
2023-01-07T12:16:18.341Z,493.20
2023-01-07T12:17:18.309Z,521.46
2023-01-07T12:18:18.299Z,521.87
2023-01-07T12:19:18.337Z,537.92
2023-01-07T12:20:18.258Z,542.76
2023-01-07T12:21:18.261Z,559.68
2023-01-07T12:22:18.244Z,569.27
2023-01-07T12:23:18.223Z,580.21
2023-01-07T12:24:18.229Z,579.19
2023-01-07T12:25:18.263Z,566.36
2023-01-07T12:26:18.203Z,558.73
2023-01-07T12:27:18.174Z,574.19
2023-01-07T12:28:18.167Z,574.68
2023-01-07T12:29:18.169Z,596.35
2023-01-07T12:30:18.140Z,588.95
2023-01-07T12:31:18.230Z,544.98
2023-01-07T12:32:18.111Z,551.77
2023-01-07T12:33:18.093Z,540.99
2023-01-07T12:34:18.081Z,525.17